Flight Track Log - Related Links

Times and Time Zones

All times are in EDT time to prevent confusion due to time zone crossing. See the AAL2345 flight status page for this flight to view local times or setup timezone preferences in your user account.

Time Position Orientation Groundspeed Altitude Reporting Facility
EDT Latitude Longitude Course Direction KTS MPH feet Rate Location/Type
Wed 06:50:45 PM 41.9333 -87.9167 194° South 193 222 1,800  Level Chicago TRACON
Wed 06:51:39 PM 41.9000 -87.9333 200° South 179 206 3,600 1,697 Climbing Chicago TRACON
Wed 06:53:00 PM 41.7595 -88.1695 201° Southwest  Level Estimated
Wed 06:53:10 PM 41.8156 -87.9739 200° South 229 264 5,900  Level Chicago Center
Wed 06:54:00 PM 41.6853 -88.2567 197° South  Level Estimated
Wed 06:54:12 PM 41.7292 -88.0217 202° Southwest 282 325 8,800  Level Chicago Center
Wed 06:55:00 PM 41.5912 -88.2168 162° South  Level FlightAware Approximate
Wed 06:55:14 PM 41.6536 -88.0567 199° South 289 333 11,500  Level Chicago Center
Wed 06:56:00 PM 41.5175 -88.3045 194° South  Level Estimated
Wed 06:56:16 PM 41.5703 -88.0978 200° South 322 371 13,300  Level Chicago Center
Wed 06:57:18 PM 41.4853 -88.1408 201° Southwest 335 386 15,700 2,323 Climbing Chicago Center
Wed 06:58:20 PM 41.3794 -88.1939 201° Southwest 352 405 18,100 2,177 Climbing Chicago Center
Wed 06:59:22 PM 41.2875 -88.2336 198° South 354 407 20,200 1,935 Climbing Chicago Center
Wed 07:00:24 PM 41.1958 -88.2750 199° South 353 406 22,100 1,548 Climbing Chicago Center
Wed 07:01:26 PM 41.1031 -88.3175 199° South 355 409 23,400 1,065 Climbing Chicago Center
Wed 07:02:28 PM 40.9806 -88.3728 199° South 387 445 24,300 1,065 Climbing Chicago Center
Wed 07:03:30 PM 40.8731 -88.4206 199° South 409 471 25,600 1,296 Climbing Chicago Center
Wed 07:04:33 PM 40.7642 -88.4692 199° South 415 478 27,000 1,440 Climbing Chicago Center
Wed 07:05:35 PM 40.6528 -88.5183 199° South 421 484 28,600 1,548 Climbing Chicago Center
Wed 07:06:37 PM 40.5467 -88.5628 198° South 409 471 30,200 1,403 Climbing Chicago Center
Wed 07:07:39 PM 40.4211 -88.6225 200° South 400 460 31,500 871 Climbing Chicago Center
Wed 07:08:41 PM 40.3164 -88.6731 200° South 397 457 32,000 242 Climbing Chicago Center
Wed 07:09:43 PM 40.2358 -88.7742 224° Southwest 398 458 32,000  Level Chicago Center
Wed 07:11:33 PM 40.0922 -88.9558 224° Southwest 398 458 32,000  Level Kansas City Center
Wed 07:12:35 PM 40.0122 -89.0569 224° Southwest 399 459 32,000  Level Kansas City Center
Wed 07:13:37 PM 39.9306 -89.1575 223° Southwest 401 461 32,000  Level Kansas City Center
Wed 07:14:40 PM 39.8508 -89.2597 225° Southwest 401 461 32,000  Level Kansas City Center
Wed 07:15:42 PM 39.7606 -89.3886 228° Southwest 400 460 32,000  Level Kansas City Center
Wed 07:16:44 PM 39.6931 -89.4864 228° Southwest 397 457 32,000  Level Kansas City Center
Wed 07:17:46 PM 39.6189 -89.5942 228° Southwest 399 459 32,000  Level Kansas City Center
Wed 07:18:48 PM 39.5450 -89.7022 228° Southwest 402 463 32,000  Level Kansas City Center
Wed 07:19:50 PM 39.4558 -89.8294 228° Southwest 400 460 32,000  Level Kansas City Center
Wed 07:20:52 PM 39.3828 -89.9364 229° Southwest 399 459 32,000  Level Kansas City Center
Wed 07:21:54 PM 39.3092 -90.0392 227° Southwest 394 453 32,000  Level Kansas City Center
Wed 07:22:56 PM 39.2342 -90.1450 228° Southwest 398 458 32,000  Level Kansas City Center
Wed 07:23:58 PM 39.1603 -90.2511 228° Southwest 401 461 32,000  Level Kansas City Center
Wed 07:25:00 PM 39.0714 -90.3767 228° Southwest 398 458 32,000  Level Kansas City Center
Wed 07:26:02 PM 38.9972 -90.4814 228° Southwest 399 459 32,000  Level Kansas City Center
Wed 07:27:04 PM 38.9203 -90.5906 228° Southwest 396 456 32,000  Level Kansas City Center
Wed 07:28:06 PM 38.8492 -90.6886 227° Southwest 400 460 32,000  Level Kansas City Center
Wed 07:29:08 PM 38.7733 -90.7933 227° Southwest 404 465 32,000  Level Kansas City Center
Wed 07:30:10 PM 38.6836 -90.9172 227° Southwest 401 461 32,000  Level Kansas City Center
Wed 07:31:12 PM 38.6086 -91.0225 228° Southwest 402 463 32,000  Level Kansas City Center
Wed 07:32:14 PM 38.5325 -91.1269 227° Southwest 403 464 32,000  Level Kansas City Center
Wed 07:33:16 PM 38.4561 -91.2308 227° Southwest 404 465 32,000  Level Kansas City Center
Wed 07:34:18 PM 38.3781 -91.3361 227° Southwest 407 468 32,000  Level Kansas City Center
Wed 07:35:20 PM 38.2925 -91.4511 227° Southwest 395 455 32,000  Level Kansas City Center
Wed 07:36:22 PM 38.2164 -91.5556 227° Southwest 396 456 32,000  Level Kansas City Center
Wed 07:37:24 PM 38.1386 -91.6608 227° Southwest 404 465 32,000  Level Kansas City Center
Wed 07:38:26 PM 38.0619 -91.7633 226° Southwest 399 459 32,000  Level Kansas City Center
Wed 07:39:28 PM 37.9706 -91.8878 227° Southwest 398 458 32,000  Level Kansas City Center
Wed 07:40:30 PM 37.8931 -91.9903 226° Southwest 397 457 32,000  Level Kansas City Center
Wed 07:41:32 PM 37.8172 -92.0906 226° Southwest 394 453 32,000  Level Kansas City Center
Wed 07:42:34 PM 37.7378 -92.1961 226° Southwest 399 459 32,000  Level Kansas City Center
Wed 07:43:36 PM 37.6644 -92.2936 226° Southwest 397 457 32,000  Level Kansas City Center
Wed 07:44:38 PM 37.5856 -92.3997 227° Southwest 396 456 32,000  Level Kansas City Center
Wed 07:45:41 PM 37.5094 -92.5008 227° Southwest 395 455 32,000  Level Kansas City Center
Wed 07:46:43 PM 37.4339 -92.6014 227° Southwest 394 453 32,000  Level Kansas City Center
Wed 07:47:45 PM 37.3586 -92.7006 226° Southwest 390 449 32,000  Level Kansas City Center
Wed 07:48:47 PM 37.2681 -92.8167 226° Southwest 388 447 32,000  Level Kansas City Center
Wed 07:49:49 PM 37.1919 -92.9156 226° Southwest 390 449 32,000  Level Kansas City Center
Wed 07:50:51 PM 37.1144 -93.0117 225° Southwest 391 450 32,000  Level Kansas City Center
Wed 07:51:53 PM 37.0372 -93.1100 225° Southwest 393 452 32,000  Level Kansas City Center
Wed 07:52:55 PM 36.9606 -93.2103 226° Southwest 396 456 32,000  Level Kansas City Center
Wed 07:53:57 PM 36.8839 -93.3092 226° Southwest 395 455 32,000  Level Kansas City Center
Wed 07:54:59 PM 36.7969 -93.4228 226° Southwest 395 455 32,000  Level Kansas City Center
Wed 07:56:01 PM 36.7183 -93.5233 226° Southwest 401 461 32,000  Level Kansas City Center
Wed 07:57:03 PM 36.6403 -93.6242 226° Southwest 403 464 32,000  Level Kansas City Center
Wed 07:58:05 PM 36.5608 -93.7244 225° Southwest 405 466 32,000  Level Kansas City Center
Wed 07:59:07 PM 36.4814 -93.8267 226° Southwest 406 467 32,000  Level Kansas City Center
Wed 08:00:09 PM 36.4008 -93.9269 225° Southwest 407 468 32,000  Level Kansas City Center
Wed 08:00:44 PM 36.3417 -93.9794 216° Southwest 406 467 32,000  Level Memphis Center
Wed 08:01:44 PM 36.2336 -94.0364 203° Southwest 420 483 32,000  Level Memphis Center
Wed 08:02:44 PM 36.1256 -94.0931 203° Southwest 414 476 32,000  Level Memphis Center
Wed 08:03:44 PM 36.0197 -94.1500 204° Southwest 414 476 32,000  Level Memphis Center
Wed 08:04:44 PM 35.9136 -94.2067 203° Southwest 414 476 32,000  Level Memphis Center
Wed 08:05:44 PM 35.8097 -94.2633 204° Southwest 414 476 32,000  Level Memphis Center
Wed 08:06:44 PM 35.7017 -94.3194 203° Southwest 419 482 32,000  Level Memphis Center
Wed 08:07:44 PM 35.5997 -94.3733 203° Southwest 419 482 32,000  Level Memphis Center
Wed 08:08:44 PM 35.4917 -94.4292 203° Southwest 419 482 32,000  Level Memphis Center
Wed 08:10:53 PM 35.2528 -94.5511 203° Southwest 422 486 32,000  Level Fort Worth Center
Wed 08:11:52 PM 35.1475 -94.6106 205° Southwest 422 486 32,000  Level Fort Worth Center
Wed 08:12:53 PM 35.0425 -94.6647 203° Southwest 422 486 32,000  Level Fort Worth Center
Wed 08:13:53 PM 34.9506 -94.7511 218° Southwest 415 478 32,000  Level Fort Worth Center
Wed 08:14:53 PM 34.8628 -94.8475 222° Southwest 422 486 32,000 -50 Level Fort Worth Center
Wed 08:15:53 PM 34.7750 -94.9411 221° Southwest 427 491 31,900 -450 Descending Fort Worth Center
Wed 08:16:53 PM 34.6911 -95.0319 222° Southwest 427 491 31,100 -800 Descending Fort Worth Center
Wed 08:17:53 PM 34.6053 -95.1253 222° Southwest 420 483 30,300 -800 Descending Fort Worth Center
Wed 08:18:53 PM 34.5153 -95.2183 220° Southwest 425 489 29,500 -800 Descending Fort Worth Center
Wed 08:19:53 PM 34.4250 -95.3164 222° Southwest 430 495 28,700 -800 Descending Fort Worth Center
Wed 08:20:53 PM 34.3306 -95.4117 220° Southwest 430 495 27,900 -750 Descending Fort Worth Center
Wed 08:21:53 PM 34.2383 -95.5092 221° Southwest 438 504 27,200 -700 Descending Fort Worth Center
Wed 08:22:53 PM 34.1458 -95.6067 221° Southwest 443 510 26,500 -850 Descending Fort Worth Center
Wed 08:23:53 PM 34.0614 -95.6961 221° Southwest 437 503 25,500 -950 Descending Fort Worth Center
Wed 08:24:53 PM 33.9731 -95.7881 221° Southwest 427 491 24,600 -800 Descending Fort Worth Center
Wed 08:25:53 PM 33.8803 -95.8797 219° Southwest 427 491 23,900 -650 Descending Fort Worth Center
Wed 08:26:53 PM 33.7894 -95.9764 222° Southwest 432 497 23,300 -1,450 Descending Fort Worth Center
Wed 08:27:53 PM 33.7028 -96.0653 220° Southwest 425 489 21,000 -2,800 Descending Fort Worth Center
Wed 08:28:53 PM 33.6183 -96.1539 221° Southwest 419 482 17,700 -3,150 Descending Fort Worth Center
Wed 08:29:53 PM 33.5356 -96.2397 221° Southwest 409 471 14,700 -2,233 Descending Fort Worth Center
Wed 08:31:53 PM 33.3972 -96.4058 225° Southwest 360 414 11,000 -1,500 Descending Fort Worth Center
Wed 08:32:53 PM 33.3392 -96.4736 224° Southwest 314 361 10,200 -1,100 Descending Fort Worth Center
Wed 08:33:53 PM 33.2833 -96.5411 225° Southwest 292 336 8,800 -1,450 Descending Fort Worth Center
Wed 08:34:53 PM 33.2442 -96.6136 237° Southwest 277 319 7,300 -1,233 Descending Fort Worth Center
Wed 08:36:00 PM 33.1362 -96.6805 220° Southwest  Level FlightAware Approximate
Wed 08:36:53 PM 33.2056 -96.7803 220° Southwest 277 319 5,100  Level Fort Worth Center
Wed 08:37:53 PM 33.1786 -96.8750 251° West 277 319 4,600 -600 Descending Fort Worth Center
Wed 08:38:53 PM 33.1603 -96.9519 254° West 282 325 3,900 -800 Descending Fort Worth Center
Wed 08:39:53 PM 33.1189 -97.0364 240° Southwest 276 318 3,000 -900 Descending Fort Worth Center

Login

Don't have an account? Register now (free) for customized features, flight alerts, and more!